sensor_id;sensor_type;location;lat;lon;timestamp;pressure;altitude;pressure_sealevel;temperature;humidity
36062;BME280;22123;52.412;20.970;2022-09-16T00:02:24;99298.16;;;10.83;100.00
36062;BME280;22123;52.412;20.970;2022-09-16T00:04:49;99293.41;;;10.85;100.00
36062;BME280;22123;52.412;20.970;2022-09-16T00:07:15;99295.09;;;10.92;100.00
36062;BME280;22123;52.412;20.970;2022-09-16T00:09:40;99291.56;;;10.92;100.00
36062;BME280;22123;52.412;20.970;2022-09-16T00:12:06;99301.34;;;11.00;100.00
36062;BME280;22123;52.412;20.970;2022-09-16T00:14:32;99305.50;;;11.02;100.00
36062;BME280;22123;52.412;20.970;2022-09-16T00:16:58;99317.28;;;11.08;100.00
36062;BME280;22123;52.412;20.970;2022-09-16T00:19:23;99299.91;;;11.04;100.00
36062;BME280;22123;52.412;20.970;2022-09-16T00:21:49;99300.31;;;11.07;100.00
36062;BME280;22123;52.412;20.970;2022-09-16T00:24:15;99311.31;;;11.12;100.00
36062;BME280;22123;52.412;20.970;2022-09-16T00:26:43;99305.50;;;11.09;100.00
36062;BME280;22123;52.412;20.970;2022-09-16T00:29:09;99309.00;;;11.03;100.00
36062;BME280;22123;52.412;20.970;2022-09-16T00:31:35;99310.25;;;11.07;100.00
36062;BME280;22123;52.412;20.970;2022-09-16T00:34:01;99297.59;;;11.01;100.00
36062;BME280;22123;52.412;20.970;2022-09-16T00:36:26;99312.09;;;11.00;100.00
36062;BME280;22123;52.412;20.970;2022-09-16T00:38:53;99323.72;;;11.07;100.00
36062;BME280;22123;52.412;20.970;2022-09-16T00:41:26;99309.41;;;11.00;100.00
36062;BME280;22123;52.412;20.970;2022-09-16T00:43:59;99316.88;;;11.04;100.00
36062;BME280;22123;52.412;20.970;2022-09-16T00:49:00;99306.94;;;10.98;100.00
36062;BME280;22123;52.412;20.970;2022-09-16T00:51:27;99311.66;;;10.96;100.00
36062;BME280;22123;52.412;20.970;2022-09-16T00:53:57;99319.34;;;10.99;100.00
36062;BME280;22123;52.412;20.970;2022-09-16T00:56:27;99326.41;;;11.00;100.00
36062;BME280;22123;52.412;20.970;2022-09-16T01:01:34;99294.88;;;10.87;100.00
36062;BME280;22123;52.412;20.970;2022-09-16T01:04:06;99305.28;;;11.04;100.00
36062;BME280;22123;52.412;20.970;2022-09-16T01:06:36;99304.44;;;11.03;100.00
36062;BME280;22123;52.412;20.970;2022-09-16T01:09:04;99318.53;;;11.12;100.00
36062;BME280;22123;52.412;20.970;2022-09-16T01:11:29;99326.41;;;11.13;100.00
36062;BME280;22123;52.412;20.970;2022-09-16T01:13:55;99327.06;;;11.16;100.00
36062;BME280;22123;52.412;20.970;2022-09-16T01:16:44;99317.09;;;11.16;100.00
36062;BME280;22123;52.412;20.970;2022-09-16T01:19:42;99324.97;;;11.18;100.00
36062;BME280;22123;52.412;20.970;2022-09-16T01:22:32;99324.78;;;11.19;100.00
36062;BME280;22123;52.412;20.970;2022-09-16T01:30:52;99326.84;;;11.24;100.00
36062;BME280;22123;52.412;20.970;2022-09-16T01:39:30;99329.97;;;11.27;100.00
36062;BME280;22123;52.412;20.970;2022-09-16T01:44:35;99323.13;;;11.25;100.00
36062;BME280;22123;52.412;20.970;2022-09-16T01:52:19;99327.53;;;11.33;100.00
36062;BME280;22123;52.412;20.970;2022-09-16T01:54:59;99339.13;;;11.33;100.00
36062;BME280;22123;52.412;20.970;2022-09-16T01:57:46;99345.31;;;11.34;100.00
36062;BME280;22123;52.412;20.970;2022-09-16T02:00:14;99331.66;;;11.28;100.00
36062;BME280;22123;52.412;20.970;2022-09-16T02:02:57;99343.69;;;11.33;100.00
36062;BME280;22123;52.412;20.970;2022-09-16T02:05:29;99349.47;;;11.36;100.00
36062;BME280;22123;52.412;20.970;2022-09-16T02:08:10;99336.63;;;11.31;100.00
36062;BME280;22123;52.412;20.970;2022-09-16T02:10:44;99337.03;;;11.35;100.00
36062;BME280;22123;52.412;20.970;2022-09-16T02:13:21;99335.78;;;11.31;100.00
36062;BME280;22123;52.412;20.970;2022-09-16T02:15:50;99342.41;;;11.35;100.00
36062;BME280;22123;52.412;20.970;2022-09-16T02:18:20;99351.97;;;11.38;100.00
36062;BME280;22123;52.412;20.970;2022-09-16T02:20:50;99339.13;;;11.33;100.00
36062;BME280;22123;52.412;20.970;2022-09-16T02:23:19;99334.97;;;11.30;100.00
36062;BME280;22123;52.412;20.970;2022-09-16T02:25:47;99333.28;;;11.29;100.00
36062;BME280;22123;52.412;20.970;2022-09-16T02:28:22;99333.72;;;11.33;100.00
36062;BME280;22123;52.412;20.970;2022-09-16T02:30:52;99341.19;;;11.38;100.00
36062;BME280;22123;52.412;20.970;2022-09-16T02:33:22;99328.75;;;11.30;100.00
36062;BME280;22123;52.412;20.970;2022-09-16T02:35:51;99331.25;;;11.31;100.00
36062;BME280;22123;52.412;20.970;2022-09-16T02:38:40;99308.41;;;11.14;100.00
36062;BME280;22123;52.412;20.970;2022-09-16T02:41:08;99342.84;;;11.32;100.00
36062;BME280;22123;52.412;20.970;2022-09-16T02:43:41;99323.38;;;11.30;100.00
36062;BME280;22123;52.412;20.970;2022-09-16T02:46:29;99337.88;;;11.36;100.00
36062;BME280;22123;52.412;20.970;2022-09-16T02:51:55;99341.19;;;11.38;100.00
36062;BME280;22123;52.412;20.970;2022-09-16T02:56:54;99334.97;;;11.37;100.00
36062;BME280;22123;52.412;20.970;2022-09-16T02:59:21;99323.75;;;11.34;100.00
36062;BME280;22123;52.412;20.970;2022-09-16T03:01:47;99327.53;;;11.33;100.00
36062;BME280;22123;52.412;20.970;2022-09-16T03:04:16;99337.03;;;11.28;100.00
36062;BME280;22123;52.412;20.970;2022-09-16T03:06:42;99334.94;;;11.24;100.00
36062;BME280;22123;52.412;20.970;2022-09-16T03:09:09;99335.56;;;11.19;100.00
36062;BME280;22123;52.412;20.970;2022-09-16T03:14:32;99334.09;;;11.10;100.00
36062;BME280;22123;52.412;20.970;2022-09-16T03:20:53;99344.00;;;11.03;100.00
36062;BME280;22123;52.412;20.970;2022-09-16T03:23:12;99330.31;;;10.91;100.00
36062;BME280;22123;52.412;20.970;2022-09-16T03:28:53;99346.88;;;10.88;100.00
36062;BME280;22123;52.412;20.970;2022-09-16T03:31:29;99338.56;;;10.83;100.00
36062;BME280;22123;52.412;20.970;2022-09-16T03:34:07;99354.47;;;10.77;100.00
36062;BME280;22123;52.412;20.970;2022-09-16T03:36:39;99342.22;;;10.68;100.00
36062;BME280;22123;52.412;20.970;2022-09-16T03:39:08;99341.59;;;10.66;100.00
36062;BME280;22123;52.412;20.970;2022-09-16T03:41:34;99339.69;;;10.60;100.00
36062;BME280;22123;52.412;20.970;2022-09-16T03:44:00;99348.81;;;10.59;100.00
36062;BME280;22123;52.412;20.970;2022-09-16T03:46:27;99352.13;;;10.61;100.00
36062;BME280;22123;52.412;20.970;2022-09-16T03:48:54;99356.03;;;10.58;100.00
36062;BME280;22123;52.412;20.970;2022-09-16T03:51:19;99355.84;;;10.60;100.00
36062;BME280;22123;52.412;20.970;2022-09-16T03:53:45;99347.97;;;10.58;100.00
36062;BME280;22123;52.412;20.970;2022-09-16T03:56:10;99357.91;;;10.58;100.00
36062;BME280;22123;52.412;20.970;2022-09-16T03:58:36;99338.81;;;10.46;100.00
36062;BME280;22123;52.412;20.970;2022-09-16T04:01:01;99348.38;;;10.55;100.00
36062;BME280;22123;52.412;20.970;2022-09-16T04:03:28;99360.75;;;10.50;100.00
36062;BME280;22123;52.412;20.970;2022-09-16T04:05:54;99360.34;;;10.46;100.00
36062;BME280;22123;52.412;20.970;2022-09-16T04:08:20;99373.19;;;10.51;100.00
36062;BME280;22123;52.412;20.970;2022-09-16T04:11:01;99367.19;;;10.49;100.00
36062;BME280;22123;52.412;20.970;2022-09-16T04:13:31;99363.44;;;10.43;100.00
36062;BME280;22123;52.412;20.970;2022-09-16T04:15:57;99369.84;;;10.42;100.00
36062;BME280;22123;52.412;20.970;2022-09-16T04:18:23;99361.50;;;10.37;100.00
36062;BME280;22123;52.412;20.970;2022-09-16T04:20:48;99367.94;;;10.36;100.00
36062;BME280;22123;52.412;20.970;2022-09-16T04:23:13;99370.84;;;10.34;100.00
36062;BME280;22123;52.412;20.970;2022-09-16T04:25:39;99382.22;;;10.36;100.00
36062;BME280;22123;52.412;20.970;2022-09-16T04:28:06;99379.88;;;10.33;100.00
36062;BME280;22123;52.412;20.970;2022-09-16T04:30:32;99366.59;;;10.25;100.00
36062;BME280;22123;52.412;20.970;2022-09-16T04:32:57;99369.94;;;10.27;100.00
36062;BME280;22123;52.412;20.970;2022-09-16T04:35:23;99380.28;;;10.30;100.00
36062;BME280;22123;52.412;20.970;2022-09-16T04:37:49;99374.06;;;10.30;100.00
36062;BME280;22123;52.412;20.970;2022-09-16T04:40:15;99369.47;;;10.23;100.00
36062;BME280;22123;52.412;20.970;2022-09-16T04:42:46;99376.31;;;10.26;100.00
36062;BME280;22123;52.412;20.970;2022-09-16T04:45:12;99368.06;;;10.27;100.00
36062;BME280;22123;52.412;20.970;2022-09-16T04:47:37;99363.69;;;10.26;100.00
36062;BME280;22123;52.412;20.970;2022-09-16T04:50:03;99377.78;;;10.29;100.00
36062;BME280;22123;52.412;20.970;2022-09-16T04:52:29;99376.75;;;10.30;100.00
36062;BME280;22123;52.412;20.970;2022-09-16T04:54:55;99379.63;;;10.28;100.00
36062;BME280;22123;52.412;20.970;2022-09-16T04:57:20;99382.31;;;10.28;100.00
36062;BME280;22123;52.412;20.970;2022-09-16T04:59:46;99382.31;;;10.28;100.00
36062;BME280;22123;52.412;20.970;2022-09-16T05:02:11;99388.34;;;10.30;100.00
36062;BME280;22123;52.412;20.970;2022-09-16T05:04:36;99387.78;;;10.35;100.00
36062;BME280;22123;52.412;20.970;2022-09-16T05:07:02;99387.13;;;10.33;100.00
36062;BME280;22123;52.412;20.970;2022-09-16T05:09:27;99396.28;;;10.38;100.00
36062;BME280;22123;52.412;20.970;2022-09-16T05:11:53;99385.09;;;10.35;100.00
36062;BME280;22123;52.412;20.970;2022-09-16T05:14:18;99379.53;;;10.36;100.00
36062;BME280;22123;52.412;20.970;2022-09-16T05:16:44;99378.50;;;10.37;100.00
36062;BME280;22123;52.412;20.970;2022-09-16T05:19:11;99371.66;;;10.35;100.00
36062;BME280;22123;52.412;20.970;2022-09-16T05:21:39;99392.81;;;10.44;100.00
36062;BME280;22123;52.412;20.970;2022-09-16T05:24:07;99382.88;;;10.45;100.00
36062;BME280;22123;52.412;20.970;2022-09-16T05:26:35;99386.03;;;10.49;100.00
36062;BME280;22123;52.412;20.970;2022-09-16T05:29:03;99378.97;;;10.48;100.00
36062;BME280;22123;52.412;20.970;2022-09-16T05:31:31;99378.19;;;10.54;100.00
36062;BME280;22123;52.412;20.970;2022-09-16T05:33:59;99381.31;;;10.57;100.00
36062;BME280;22123;52.412;20.970;2022-09-16T05:36:28;99378.19;;;10.54;100.00
36062;BME280;22123;52.412;20.970;2022-09-16T05:38:54;99395.19;;;10.61;100.00
36062;BME280;22123;52.412;20.970;2022-09-16T05:41:19;99377.78;;;10.57;100.00
36062;BME280;22123;52.412;20.970;2022-09-16T05:43:45;99385.69;;;10.65;100.00
36062;BME280;22123;52.412;20.970;2022-09-16T05:46:19;99376.75;;;10.58;100.00
36062;BME280;22123;52.412;20.970;2022-09-16T05:48:45;99403.31;;;10.74;100.00
36062;BME280;22123;52.412;20.970;2022-09-16T05:51:14;99392.97;;;10.71;100.00
36062;BME280;22123;52.412;20.970;2022-09-16T05:53:40;99393.00;;;10.78;100.00
36062;BME280;22123;52.412;20.970;2022-09-16T05:56:08;99396.53;;;10.78;100.00
36062;BME280;22123;52.412;20.970;2022-09-16T05:58:35;99389.28;;;10.79;100.00
36062;BME280;22123;52.412;20.970;2022-09-16T06:01:03;99379.09;;;10.74;100.00
36062;BME280;22123;52.412;20.970;2022-09-16T06:03:31;99384.31;;;10.83;100.00
36062;BME280;22123;52.412;20.970;2022-09-16T06:06:05;99389.09;;;10.87;100.00
36062;BME280;22123;52.412;20.970;2022-09-16T06:08:33;99385.81;;;10.92;100.00
36062;BME280;22123;52.412;20.970;2022-09-16T06:11:03;99384.78;;;10.93;100.00
36062;BME280;22123;52.412;20.970;2022-09-16T06:13:29;99366.34;;;10.90;100.00
36062;BME280;22123;52.412;20.970;2022-09-16T06:15:55;99379.22;;;11.01;100.00
36062;BME280;22123;52.412;20.970;2022-09-16T06:18:21;99373.19;;;10.99;100.00
36062;BME280;22123;52.412;20.970;2022-09-16T06:20:47;99391.28;;;11.12;100.00
36062;BME280;22123;52.412;20.970;2022-09-16T06:23:14;99380.28;;;11.13;100.00
36062;BME280;22123;52.412;20.970;2022-09-16T06:25:39;99381.56;;;11.18;100.00
36062;BME280;22123;52.412;20.970;2022-09-16T06:28:05;99389.66;;;11.24;100.00
36062;BME280;22123;52.412;20.970;2022-09-16T06:30:31;99375.13;;;11.19;100.00
36062;BME280;22123;52.412;20.970;2022-09-16T06:32:56;99365.59;;;11.16;100.00
36062;BME280;22123;52.412;20.970;2022-09-16T06:35:21;99379.28;;;11.28;100.00
36062;BME280;22123;52.412;20.970;2022-09-16T06:37:47;99384.69;;;11.28;100.00
36062;BME280;22123;52.412;20.970;2022-09-16T06:40:13;99388.22;;;11.35;100.00
36062;BME280;22123;52.412;20.970;2022-09-16T06:42:38;99396.75;;;11.45;100.00
36062;BME280;22123;52.412;20.970;2022-09-16T06:45:04;99384.94;;;11.46;100.00
36062;BME280;22123;52.412;20.970;2022-09-16T06:47:31;99383.91;;;11.54;100.00
36062;BME280;22123;52.412;20.970;2022-09-16T06:49:58;99377.91;;;11.52;100.00
36062;BME280;22123;52.412;20.970;2022-09-16T06:52:23;99377.28;;;11.57;100.00
36062;BME280;22123;52.412;20.970;2022-09-16T06:54:49;99368.59;;;11.55;100.00
36062;BME280;22123;52.412;20.970;2022-09-16T06:57:15;99366.50;;;11.57;100.00
36062;BME280;22123;52.412;20.970;2022-09-16T06:59:40;99368.16;;;11.58;100.00
36062;BME280;22123;52.412;20.970;2022-09-16T07:02:07;99364.03;;;11.69;100.00
36062;BME280;22123;52.412;20.970;2022-09-16T07:04:33;99378.53;;;11.74;100.00
36062;BME280;22123;52.412;20.970;2022-09-16T07:06:59;99390.19;;;11.88;100.00
36062;BME280;22123;52.412;20.970;2022-09-16T07:09:25;99394.56;;;11.96;100.00
36062;BME280;22123;52.412;20.970;2022-09-16T07:11:50;99394.56;;;11.96;100.00
36062;BME280;22123;52.412;20.970;2022-09-16T07:14:15;99391.66;;;11.97;100.00
36062;BME280;22123;52.412;20.970;2022-09-16T07:16:41;99398.94;;;12.04;100.00
36062;BME280;22123;52.412;20.970;2022-09-16T07:19:06;99405.34;;;12.16;100.00
36062;BME280;22123;52.412;20.970;2022-09-16T07:21:31;99390.19;;;12.15;100.00
36062;BME280;22123;52.412;20.970;2022-09-16T07:23:59;99399.31;;;12.21;100.00
36062;BME280;22123;52.412;20.970;2022-09-16T07:26:27;99407.22;;;12.29;100.00
36062;BME280;22123;52.412;20.970;2022-09-16T07:28:54;99409.69;;;12.37;100.00
36062;BME280;22123;52.412;20.970;2022-09-16T07:31:25;99407.59;;;12.39;100.00
36062;BME280;22123;52.412;20.970;2022-09-16T07:33:52;99407.41;;;12.41;100.00
36062;BME280;22123;52.412;20.970;2022-09-16T07:36:21;99403.44;;;12.43;100.00
36062;BME280;22123;52.412;20.970;2022-09-16T07:38:47;99402.63;;;12.43;100.00
36062;BME280;22123;52.412;20.970;2022-09-16T07:41:18;99400.53;;;12.45;100.00
36062;BME280;22123;52.412;20.970;2022-09-16T07:43:44;99415.06;;;12.50;100.00
36062;BME280;22123;52.412;20.970;2022-09-16T07:46:11;99398.44;;;12.47;100.00
36062;BME280;22123;52.412;20.970;2022-09-16T07:48:37;99398.44;;;12.53;100.00
36062;BME280;22123;52.412;20.970;2022-09-16T07:51:17;99403.19;;;12.65;100.00
36062;BME280;22123;52.412;20.970;2022-09-16T07:53:43;99402.56;;;12.69;100.00
36062;BME280;22123;52.412;20.970;2022-09-16T07:56:11;99408.78;;;12.77;100.00
36062;BME280;22123;52.412;20.970;2022-09-16T07:58:38;99408.13;;;12.81;100.00
36062;BME280;22123;52.412;20.970;2022-09-16T08:01:05;99392.78;;;12.82;100.00
36062;BME280;22123;52.412;20.970;2022-09-16T08:03:33;99395.63;;;12.94;100.00
36062;BME280;22123;52.412;20.970;2022-09-16T08:06:00;99391.63;;;13.03;100.00
36062;BME280;22123;52.412;20.970;2022-09-16T08:08:26;99403.03;;;13.12;100.00
36062;BME280;22123;52.412;20.970;2022-09-16T08:10:53;99410.91;;;13.13;100.00
36062;BME280;22123;52.412;20.970;2022-09-16T08:13:19;99411.97;;;13.12;100.00
36062;BME280;22123;52.412;20.970;2022-09-16T08:15:44;99405.13;;;13.10;100.00
36062;BME280;22123;52.412;20.970;2022-09-16T08:18:09;99409.00;;;13.20;100.00
36062;BME280;22123;52.412;20.970;2022-09-16T08:20:35;99418.56;;;13.23;100.00
36062;BME280;22123;52.412;20.970;2022-09-16T08:23:01;99407.53;;;13.31;100.00
36062;BME280;22123;52.412;20.970;2022-09-16T08:25:26;99400.66;;;13.35;100.00
36062;BME280;22123;52.412;20.970;2022-09-16T08:27:52;99408.50;;;13.44;100.00
36062;BME280;22123;52.412;20.970;2022-09-16T08:30:17;99419.91;;;13.52;100.00
36062;BME280;22123;52.412;20.970;2022-09-16T08:32:43;99404.75;;;13.51;100.00
36062;BME280;22123;52.412;20.970;2022-09-16T08:35:08;99395.84;;;13.44;100.00
36062;BME280;22123;52.412;20.970;2022-09-16T08:37:34;99399.75;;;13.48;100.00
36062;BME280;22123;52.412;20.970;2022-09-16T08:40:01;99402.59;;;13.60;100.00
36062;BME280;22123;52.412;20.970;2022-09-16T08:42:36;99401.72;;;13.66;100.00
36062;BME280;22123;52.412;20.970;2022-09-16T08:45:28;99406.03;;;13.74;100.00
36062;BME280;22123;52.412;20.970;2022-09-16T08:48:22;99399.75;;;13.80;100.00
36062;BME280;22123;52.412;20.970;2022-09-16T08:50:52;99382.75;;;13.73;100.00
36062;BME280;22123;52.412;20.970;2022-09-16T08:53:34;99407.66;;;13.82;100.00
36062;BME280;22123;52.412;20.970;2022-09-16T08:56:04;99408.72;;;13.74;100.00
36062;BME280;22123;52.412;20.970;2022-09-16T08:58:41;99403.59;;;13.66;100.00
36062;BME280;22123;52.412;20.970;2022-09-16T09:01:47;99392.56;;;13.67;100.00
36062;BME280;22123;52.412;20.970;2022-09-16T09:04:14;99400.41;;;13.76;100.00
36062;BME280;22123;52.412;20.970;2022-09-16T09:07:00;99413.09;;;13.75;100.00
36062;BME280;22123;52.412;20.970;2022-09-16T09:28:28;99426.56;;;14.14;100.00
36062;BME280;22123;52.412;20.970;2022-09-16T09:31:18;99400.31;;;14.14;100.00
36062;BME280;22123;52.412;20.970;2022-09-16T09:41:57;99414.06;;;14.56;100.00
36062;BME280;22123;52.412;20.970;2022-09-16T09:47:30;99411.47;;;15.05;100.00
36062;BME280;22123;52.412;20.970;2022-09-16T09:50:04;99413.03;;;15.13;100.00
36062;BME280;22123;52.412;20.970;2022-09-16T09:52:42;99403.19;;;15.19;100.00
36062;BME280;22123;52.412;20.970;2022-09-16T09:55:19;99427.09;;;15.40;100.00
36062;BME280;22123;52.412;20.970;2022-09-16T10:00:18;99415.69;;;15.50;100.00
36062;BME280;22123;52.412;20.970;2022-09-16T10:02:45;99419.31;;;15.74;100.00
36062;BME280;22123;52.412;20.970;2022-09-16T10:05:25;99416.91;;;15.85;100.00
36062;BME280;22123;52.412;20.970;2022-09-16T10:07:52;99418.91;;;15.89;100.00
36062;BME280;22123;52.412;20.970;2022-09-16T10:10:22;99421.81;;;15.76;100.00
36062;BME280;22123;52.412;20.970;2022-09-16T10:12:48;99432.25;;;15.60;100.00
36062;BME280;22123;52.412;20.970;2022-09-16T10:17:49;99420.66;;;15.23;100.00
36062;BME280;22123;52.412;20.970;2022-09-16T10:20:33;99417.94;;;15.04;100.00
36062;BME280;22123;52.412;20.970;2022-09-16T10:23:02;99431.13;;;15.01;100.00
36062;BME280;22123;52.412;20.970;2022-09-16T10:25:30;99419.56;;;14.93;100.00
36062;BME280;22123;52.412;20.970;2022-09-16T10:27:58;99421.34;;;15.00;100.00
36062;BME280;22123;52.412;20.970;2022-09-16T10:30:27;99425.78;;;15.12;100.00
36062;BME280;22123;52.412;20.970;2022-09-16T10:33:02;99424.97;;;15.42;100.00
36062;BME280;22123;52.412;20.970;2022-09-16T10:35:33;99427.06;;;16.01;100.00
36062;BME280;22123;52.412;20.970;2022-09-16T10:38:05;99409.72;;;16.49;100.00
36062;BME280;22123;52.412;20.970;2022-09-16T10:40:32;99416.97;;;16.56;100.00
36062;BME280;22123;52.412;20.970;2022-09-16T10:43:03;99426.38;;;16.77;100.00
36062;BME280;22123;52.412;20.970;2022-09-16T10:45:34;99407.97;;;16.79;100.00
36062;BME280;22123;52.412;20.970;2022-09-16T10:48:04;99413.63;;;16.77;100.00
36062;BME280;22123;52.412;20.970;2022-09-16T10:50:30;99422.84;;;16.76;100.00
36062;BME280;22123;52.412;20.970;2022-09-16T10:52:56;99396.88;;;16.33;100.00
36062;BME280;22123;52.412;20.970;2022-09-16T10:55:28;99409.75;;;16.14;100.00
36062;BME280;22123;52.412;20.970;2022-09-16T10:58:17;99397.75;;;15.79;100.00
36062;BME280;22123;52.412;20.970;2022-09-16T11:06:47;99426.06;;;15.23;100.00
36062;BME280;22123;52.412;20.970;2022-09-16T11:09:31;99424.81;;;15.07;100.00
36062;BME280;22123;52.412;20.970;2022-09-16T11:17:40;99427.81;;;14.80;100.00
36062;BME280;22123;52.412;20.970;2022-09-16T11:25:49;99422.56;;;14.85;100.00
36062;BME280;22123;52.412;20.970;2022-09-16T11:28:33;99423.59;;;14.84;100.00
36062;BME280;22123;52.412;20.970;2022-09-16T11:37:17;99402.78;;;14.85;100.00
36062;BME280;22123;52.412;20.970;2022-09-16T11:40:23;99405.09;;;15.00;100.00
36062;BME280;22123;52.412;20.970;2022-09-16T11:46:00;99402.66;;;15.10;100.00
36062;BME280;22123;52.412;20.970;2022-09-16T11:48:58;99386.28;;;15.05;100.00
36062;BME280;22123;52.412;20.970;2022-09-16T11:57:07;99381.31;;;15.32;100.00
36062;BME280;22123;52.412;20.970;2022-09-16T12:02:28;99391.63;;;15.23;100.00
36062;BME280;22123;52.412;20.970;2022-09-16T12:07:48;99399.44;;;15.01;100.00
36062;BME280;22123;52.412;20.970;2022-09-16T12:10:20;99412.41;;;14.99;100.00
36062;BME280;22123;52.412;20.970;2022-09-16T12:13:02;99397.34;;;14.85;100.00
36062;BME280;22123;52.412;20.970;2022-09-16T12:15:43;99404.34;;;14.92;100.00
36062;BME280;22123;52.412;20.970;2022-09-16T12:18:20;99399.91;;;14.98;100.00
36062;BME280;22123;52.412;20.970;2022-09-16T12:21:09;99408.03;;;14.98;100.00
36062;BME280;22123;52.412;20.970;2022-09-16T12:23:54;99404.41;;;15.04;100.00
36062;BME280;22123;52.412;20.970;2022-09-16T12:26:28;99390.50;;;15.01;100.00
36062;BME280;22123;52.412;20.970;2022-09-16T12:34:17;99385.38;;;14.92;100.00
36062;BME280;22123;52.412;20.970;2022-09-16T12:36:48;99372.03;;;14.91;100.00
36062;BME280;22123;52.412;20.970;2022-09-16T12:39:18;99377.81;;;15.13;100.00
36062;BME280;22123;52.412;20.970;2022-09-16T12:44:52;99368.44;;;15.70;100.00
36062;BME280;22123;52.412;20.970;2022-09-16T12:52:44;99378.22;;;16.01;100.00
36062;BME280;22123;52.412;20.970;2022-09-16T13:01:36;99380.97;;;15.71;100.00
36062;BME280;22123;52.412;20.970;2022-09-16T13:03:52;99367.59;;;15.57;100.00
36062;BME280;22123;52.412;20.970;2022-09-16T13:06:26;99367.00;;;15.55;100.00
36062;BME280;22123;52.412;20.970;2022-09-16T13:08:53;99359.78;;;15.49;100.00
36062;BME280;22123;52.412;20.970;2022-09-16T13:11:25;99355.31;;;15.43;100.00
36062;BME280;22123;52.412;20.970;2022-09-16T13:13:56;99363.56;;;15.48;100.00
36062;BME280;22123;52.412;20.970;2022-09-16T13:16:28;99359.06;;;15.42;100.00
36062;BME280;22123;52.412;20.970;2022-09-16T13:21:45;99367.66;;;15.39;100.00
36062;BME280;22123;52.412;20.970;2022-09-16T13:26:42;99357.34;;;15.29;100.00
36062;BME280;22123;52.412;20.970;2022-09-16T13:31:51;99348.34;;;15.47;100.00
36062;BME280;22123;52.412;20.970;2022-09-16T13:34:17;99354.84;;;15.46;100.00
36062;BME280;22123;52.412;20.970;2022-09-16T13:36:44;99363.66;;;15.41;100.00
36062;BME280;22123;52.412;20.970;2022-09-16T13:39:14;99356.31;;;15.30;100.00
36062;BME280;22123;52.412;20.970;2022-09-16T13:41:42;99365.03;;;15.32;100.00
36062;BME280;22123;52.412;20.970;2022-09-16T13:47:15;99364.69;;;15.28;100.00
36062;BME280;22123;52.412;20.970;2022-09-16T13:52:18;99358.78;;;15.32;100.00
36062;BME280;22123;52.412;20.970;2022-09-16T13:54:49;99350.69;;;15.43;100.00
36062;BME280;22123;52.412;20.970;2022-09-16T14:05:25;99359.81;;;15.61;100.00
36062;BME280;22123;52.412;20.970;2022-09-16T14:08:21;99342.59;;;15.55;100.00
36062;BME280;22123;52.412;20.970;2022-09-16T14:11:11;99344.03;;;15.70;100.00
36062;BME280;22123;52.412;20.970;2022-09-16T14:13:42;99345.25;;;15.86;100.00
36062;BME280;22123;52.412;20.970;2022-09-16T14:16:29;99328.88;;;15.92;100.00
36062;BME280;22123;52.412;20.970;2022-09-16T14:19:26;99335.72;;;16.19;100.00
36062;BME280;22123;52.412;20.970;2022-09-16T14:22:04;99330.53;;;16.29;100.00
36062;BME280;22123;52.412;20.970;2022-09-16T14:24:35;99339.09;;;16.49;100.00
36062;BME280;22123;52.412;20.970;2022-09-16T14:27:02;99336.16;;;16.63;100.00
36062;BME280;22123;52.412;20.970;2022-09-16T14:29:30;99336.25;;;16.68;100.00
36062;BME280;22123;52.412;20.970;2022-09-16T14:31:56;99336.69;;;16.77;100.00
36062;BME280;22123;52.412;20.970;2022-09-16T14:34:29;99350.03;;;16.78;100.00
36062;BME280;22123;52.412;20.970;2022-09-16T14:36:56;99340.25;;;16.65;100.00
36062;BME280;22123;52.412;20.970;2022-09-16T14:39:24;99331.66;;;16.68;100.00
36062;BME280;22123;52.412;20.970;2022-09-16T14:41:55;99343.22;;;16.76;100.00
36062;BME280;22123;52.412;20.970;2022-09-16T14:44:34;99327.72;;;16.76;100.00
36062;BME280;22123;52.412;20.970;2022-09-16T14:47:28;99337.38;;;16.84;100.00
36062;BME280;22123;52.412;20.970;2022-09-16T14:50:06;99328.53;;;16.77;100.00
36062;BME280;22123;52.412;20.970;2022-09-16T14:52:34;99337.28;;;16.79;100.00
36062;BME280;22123;52.412;20.970;2022-09-16T14:55:00;99332.72;;;16.67;100.00
36062;BME280;22123;52.412;20.970;2022-09-16T14:57:27;99337.31;;;16.55;100.00
36062;BME280;22123;52.412;20.970;2022-09-16T15:00:00;99331.22;;;16.36;100.00
36062;BME280;22123;52.412;20.970;2022-09-16T15:02:32;99331.00;;;16.14;100.00
36062;BME280;22123;52.412;20.970;2022-09-16T15:07:43;99331.94;;;15.96;100.00
36062;BME280;22123;52.412;20.970;2022-09-16T15:12:48;99339.03;;;15.97;100.00
36062;BME280;22123;52.412;20.970;2022-09-16T15:17:43;99335.25;;;15.98;100.00
36062;BME280;22123;52.412;20.970;2022-09-16T15:20:20;99336.06;;;15.98;100.00
36062;BME280;22123;52.412;20.970;2022-09-16T15:22:47;99329.59;;;15.88;100.00
36062;BME280;22123;52.412;20.970;2022-09-16T15:25:20;99336.16;;;15.80;100.00
36062;BME280;22123;52.412;20.970;2022-09-16T15:27:46;99335.78;;;15.64;100.00
36062;BME280;22123;52.412;20.970;2022-09-16T15:30:23;99339.63;;;15.57;100.00
36062;BME280;22123;52.412;20.970;2022-09-16T15:32:49;99340.47;;;15.45;100.00
36062;BME280;22123;52.412;20.970;2022-09-16T15:35:22;99325.94;;;15.40;100.00
36062;BME280;22123;52.412;20.970;2022-09-16T15:37:48;99330.03;;;15.42;100.00
36062;BME280;22123;52.412;20.970;2022-09-16T15:40:29;99316.47;;;15.30;100.00